Time;durP1;ratioP1;P1;durP2;ratioP2;P2;SDS_P1;SDS_P2;PMS_P1;PMS_P2;Temp;Humidity;BMP_temperature;BMP_pressure;BME280_temperature;BME280_humidity;BME280_pressure;Samples;Min_cycle;Max_cycle;Signal;HPM_P1;HPM_P2
2022/05/24 00:00:46;;;;;;;4.9;2.7;;;;;;;16.16;99.58398;929.6478;;;;
2022/05/24 00:03:21;;;;;;;4.4;2.5;;;;;;;16.24;98.60742;929.6072;;;;
2022/05/24 00:05:48;;;;;;;4;2.5;;;;;;;16.31;98.50586;929.6266;;;;
2022/05/24 00:08:23;;;;;;;3.2;2.5;;;;;;;16.3;98.33105;929.6131;;;;
2022/05/24 00:10:49;;;;;;;3.1;2.2;;;;;;;16.18;98.91699;929.6617;;;;
2022/05/24 00:13:22;;;;;;;4.9;2.3;;;;;;;16.26;99.16895;929.6687;;;;
2022/05/24 00:15:57;;;;;;;4.3;2.5;;;;;;;16.27;98.90332;929.6797;;;;
2022/05/24 00:18:25;;;;;;;4.3;2.5;;;;;;;16.39;98.04102;929.6346;;;;
2022/05/24 00:20:50;;;;;;;4.8;2.4;;;;;;;16.41;98.3125;929.5891;;;;
2022/05/24 00:23:18;;;;;;;5.4;2.4;;;;;;;16.47;97.94141;929.6047;;;;
2022/05/24 00:25:43;;;;;;;3.5;2.4;;;;;;;16.49;97.91211;929.6484;;;;
2022/05/24 00:28:12;;;;;;;3.7;2.2;;;;;;;16.19;99.89063;929.6808;;;;
2022/05/24 00:30:37;;;;;;;4.5;2.1;;;;;;;16.21;99.38574;929.6506;;;;
2022/05/24 00:33:02;;;;;;;3.7;2.4;;;;;;;16.33;98.7666;929.6957;;;;
2022/05/24 00:35:33;;;;;;;4.4;2.1;;;;;;;16.29;98.15527;929.7371;;;;
2022/05/24 00:37:59;;;;;;;3.8;2.2;;;;;;;16.31;98.18457;929.6498;;;;
2022/05/24 00:40:24;;;;;;;4;2.2;;;;;;;16.35;97.77637;929.6503;;;;
2022/05/24 00:42:50;;;;;;;4.9;2.2;;;;;;;16.31;98.25391;929.6434;;;;
2022/05/24 00:45:19;;;;;;;3.7;2.2;;;;;;;16.33;97.7373;929.5568;;;;
2022/05/24 00:47:51;;;;;;;3.1;2.3;;;;;;;16.38;97.61035;929.524;;;;
2022/05/24 00:50:15;;;;;;;3.5;2.3;;;;;;;16.43;97.13477;929.6067;;;;
2022/05/24 00:52:40;;;;;;;4.8;2;;;;;;;16.36;97.33789;929.6581;;;;
2022/05/24 00:55:06;;;;;;;4.1;2.4;;;;;;;16.2;97.69727;929.6442;;;;
2022/05/24 00:57:31;;;;;;;4;2;;;;;;;16.07;98.78711;929.5826;;;;
2022/05/24 00:59:56;;;;;;;4.6;1.9;;;;;;;16.21;98.59961;929.665;;;;
2022/05/24 01:02:21;;;;;;;4.4;2.5;;;;;;;16.24;98.46875;929.702;;;;
2022/05/24 01:04:47;;;;;;;3.4;2.1;;;;;;;16.28;98.17578;929.6834;;;;
2022/05/24 01:07:15;;;;;;;3.1;2;;;;;;;16.35;97.83398;929.5941;;;;
2022/05/24 01:09:40;;;;;;;4.8;2.4;;;;;;;16.4;97.39453;929.5436;;;;
2022/05/24 01:12:08;;;;;;;3.3;2.1;;;;;;;16.48;96.50781;929.6239;;;;
2022/05/24 01:14:33;;;;;;;2.8;2.2;;;;;;;16.43;96.55762;929.5776;;;;
2022/05/24 01:17:04;;;;;;;2.3;2.1;;;;;;;16.38;96.74023;929.5965;;;;
2022/05/24 01:19:32;;;;;;;3.2;2.1;;;;;;;16.37;97.08594;929.5253;;;;
2022/05/24 01:21:57;;;;;;;2.1;1.9;;;;;;;16.38;97.12207;929.5644;;;;
2022/05/24 01:24:22;;;;;;;4.4;2.5;;;;;;;16.4;96.80469;929.5565;;;;
2022/05/24 01:26:51;;;;;;;3.5;2.3;;;;;;;16.49;96.43066;929.4973;;;;
2022/05/24 01:29:15;;;;;;;4.2;2.5;;;;;;;16.51;96.37695;929.4992;;;;
2022/05/24 01:36:37;;;;;;;5.2;2.9;;;;;;;16.51;96.75684;929.2606;;;;
2022/05/24 01:39:03;;;;;;;5.9;2.6;;;;;;;16.52;96.7373;929.2313;;;;
2022/05/24 01:41:28;;;;;;;3.9;2.2;;;;;;;16.62;96.49316;929.1861;;;;
2022/05/24 01:43:55;;;;;;;4.7;2.2;;;;;;;16.52;97.31641;929.2732;;;;
2022/05/24 01:46:21;;;;;;;3.9;2.1;;;;;;;16.36;97.83594;929.1994;;;;
2022/05/24 01:48:46;;;;;;;5;2;;;;;;;16.18;99.20898;929.0954;;;;
2022/05/24 01:51:11;;;;;;;3.2;1.8;;;;;;;15.96;100;929.1378;;;;
2022/05/24 01:53:41;;;;;;;3.5;1.8;;;;;;;16.14;100;929.1326;;;;
2022/05/24 01:56:04;;;;;;;3.6;2.1;;;;;;;16.18;99.625;929.0351;;;;
2022/05/24 01:58:30;;;;;;;4.9;2.4;;;;;;;16.13;100;929.0405;;;;
2022/05/24 02:00:55;;;;;;;5.2;2.3;;;;;;;16.14;99.4873;928.9695;;;;
2022/05/24 02:03:25;;;;;;;4.4;2.2;;;;;;;16.18;99.42676;928.9052;;;;
2022/05/24 02:05:55;;;;;;;2.9;1.9;;;;;;;16.21;98.32422;928.8912;;;;
2022/05/24 02:08:20;;;;;;;3.9;2.2;;;;;;;16.15;97.83594;928.8608;;;;
2022/05/24 02:10:46;;;;;;;5.6;2.2;;;;;;;16.2;97.73242;928.8105;;;;
2022/05/24 02:13:11;;;;;;;3.5;2;;;;;;;16.1;97.28027;928.8261;;;;
2022/05/24 02:15:38;;;;;;;2.9;2.2;;;;;;;16.06;97.21387;928.889;;;;
2022/05/24 02:18:03;;;;;;;3.9;2.2;;;;;;;16.05;97.77637;928.9423;;;;
2022/05/24 02:20:31;;;;;;;2.6;1.9;;;;;;;15.87;98.55957;929.0037;;;;
2022/05/24 02:22:55;;;;;;;2.6;1.8;;;;;;;15.96;99.30762;928.9886;;;;
2022/05/24 02:25:24;;;;;;;2.2;1.4;;;;;;;15.85;98.95996;928.8124;;;;
2022/05/24 02:27:49;;;;;;;3.8;1.5;;;;;;;15.68;98.90918;928.7797;;;;
2022/05/24 02:30:14;;;;;;;3;1.9;;;;;;;15.47;100;928.728;;;;
2022/05/24 02:32:44;;;;;;;2.9;1.8;;;;;;;15.48;100;928.6837;;;;
2022/05/24 02:35:09;;;;;;;3;1.8;;;;;;;15.57;100;928.7109;;;;
2022/05/24 02:37:38;;;;;;;4.1;1.5;;;;;;;15.59;100;928.6788;;;;
2022/05/24 02:42:35;;;;;;;2.5;1.7;;;;;;;15.63;98.73535;928.5753;;;;
2022/05/24 02:45:00;;;;;;;3.3;1.6;;;;;;;15.56;98.69629;928.6898;;;;
2022/05/24 02:47:31;;;;;;;3.2;2.7;;;;;;;15.41;99.30957;928.6946;;;;
2022/05/24 02:50:01;;;;;;;3.3;2.4;;;;;;;15.25;100;928.6618;;;;
2022/05/24 02:52:26;;;;;;;2.3;1.6;;;;;;;15.32;100;928.5894;;;;
2022/05/24 02:54:53;;;;;;;2;1.5;;;;;;;15.36;99.85352;928.5923;;;;
2022/05/24 02:57:18;;;;;;;3.4;1.4;;;;;;;15.21;98.88574;928.5724;;;;
2022/05/24 02:59:45;;;;;;;2.7;1.4;;;;;;;15.18;100;928.5804;;;;
2022/05/24 03:02:10;;;;;;;2.3;1.3;;;;;;;15.18;100;928.502;;;;
2022/05/24 03:04:40;;;;;;;1.9;1.4;;;;;;;15.13;100;928.5439;;;;
2022/05/24 03:09:37;;;;;;;2.1;1.4;;;;;;;15.27;100;928.5545;;;;
2022/05/24 03:14:31;;;;;;;2.7;1.5;;;;;;;15.5;100;928.5524;;;;
2022/05/24 03:16:56;;;;;;;3.1;1.6;;;;;;;15.56;99.59668;928.5887;;;;
2022/05/24 03:19:23;;;;;;;1.8;1.4;;;;;;;15.39;98.29004;928.5492;;;;
2022/05/24 03:21:50;;;;;;;2.2;1.3;;;;;;;15.3;99.38867;928.4478;;;;
2022/05/24 03:24:17;;;;;;;2.1;1.6;;;;;;;15.31;100;928.4556;;;;
2022/05/24 03:26:42;;;;;;;1.5;1.4;;;;;;;15.45;100;928.5728;;;;
2022/05/24 03:29:11;;;;;;;1.3;1.2;;;;;;;15.37;100;928.5578;;;;
2022/05/24 03:31:37;;;;;;;1.9;1.2;;;;;;;15.57;99.47168;928.5948;;;;
2022/05/24 03:34:02;;;;;;;1.7;1.2;;;;;;;15.59;98.59082;928.5519;;;;
2022/05/24 03:36:30;;;;;;;2.7;1.5;;;;;;;15.67;97.82129;928.5012;;;;
2022/05/24 03:38:55;;;;;;;2.1;1.7;;;;;;;15.69;97.76563;928.4391;;;;
2022/05/24 03:41:24;;;;;;;2.1;1.5;;;;;;;15.7;97.84082;928.4988;;;;
2022/05/24 03:43:54;;;;;;;1.7;1.6;;;;;;;15.74;98.07813;928.4698;;;;
2022/05/24 03:46:19;;;;;;;1.3;1.2;;;;;;;15.76;98.06055;928.4306;;;;
2022/05/24 03:48:44;;;;;;;3.7;2.3;;;;;;;15.65;98.15234;928.4247;;;;
2022/05/24 03:51:13;;;;;;;2.6;1.6;;;;;;;15.64;97.91895;928.4321;;;;
2022/05/24 03:53:38;;;;;;;1.4;1.3;;;;;;;15.61;97.72656;928.3244;;;;
2022/05/24 03:56:03;;;;;;;2.4;1.9;;;;;;;15.66;97.37793;928.317;;;;
2022/05/24 03:58:31;;;;;;;3.2;1.8;;;;;;;15.72;97.38281;928.3499;;;;
2022/05/24 04:02:34;;;;;;;1.6;1.4;;;;;;;15.49;99.32813;928.3745;;;;
2022/05/24 04:05:03;;;;;;;3.5;1.3;;;;;;;15.4;100;928.399;;;;
2022/05/24 04:07:28;;;;;;;1.9;1.2;;;;;;;15.35;99.41113;928.4203;;;;
2022/05/24 04:09:57;;;;;;;3.1;1.3;;;;;;;15.4;98.81152;928.5466;;;;
2022/05/24 04:12:22;;;;;;;1.5;1.3;;;;;;;15.35;98.4668;928.5251;;;;
2022/05/24 04:14:49;;;;;;;1.5;1.4;;;;;;;15.45;98.39453;928.5561;;;;
2022/05/24 04:17:14;;;;;;;1.8;1.3;;;;;;;15.43;97.66309;928.5622;;;;
2022/05/24 04:19:41;;;;;;;1.6;1.1;;;;;;;15.37;97.75488;928.4717;;;;
2022/05/24 04:22:06;;;;;;;2.5;1.1;;;;;;;15.41;97.38184;928.4668;;;;
2022/05/24 04:24:33;;;;;;;1.4;1;;;;;;;15.36;97.84473;928.5499;;;;
2022/05/24 04:26:58;;;;;;;1.2;1;;;;;;;15.31;98.38477;928.6186;;;;
2022/05/24 04:29:25;;;;;;;1.3;0.9;;;;;;;15.29;98.38281;928.7177;;;;
2022/05/24 04:31:51;;;;;;;2.1;1.4;;;;;;;15.35;98.04883;928.7403;;;;
2022/05/24 04:34:19;;;;;;;1.6;1.2;;;;;;;15.45;97.77051;928.7703;;;;
2022/05/24 04:36:44;;;;;;;3.3;1.4;;;;;;;15.59;97.18164;928.7525;;;;
2022/05/24 04:39:09;;;;;;;2.1;1.4;;;;;;;15.61;97.14844;928.8106;;;;
2022/05/24 04:44:07;;;;;;;1.3;1.2;;;;;;;15.77;96.92871;928.8206;;;;
2022/05/24 04:49:09;;;;;;;2;1.3;;;;;;;15.91;95.87402;928.7955;;;;
2022/05/24 04:51:38;;;;;;;1.5;1.4;;;;;;;16.01;95.2832;928.8017;;;;
2022/05/24 04:54:03;;;;;;;2.1;1.6;;;;;;;16.06;95.43359;928.7307;;;;
2022/05/24 04:56:33;;;;;;;2.1;1.3;;;;;;;16.11;95.52637;928.7432;;;;
2022/05/24 04:58:59;;;;;;;2.8;1.5;;;;;;;16.17;95.5127;928.7584;;;;
2022/05/24 05:01:28;;;;;;;2.9;1.4;;;;;;;16.16;95.96387;928.749;;;;
2022/05/24 05:03:53;;;;;;;1.7;1.4;;;;;;;16.19;95.41504;928.7811;;;;
2022/05/24 05:06:25;;;;;;;2.4;1.3;;;;;;;16.21;94.42578;928.6792;;;;
2022/05/24 05:08:57;;;;;;;3.3;1.8;;;;;;;16.24;94.11914;928.6859;;;;
2022/05/24 05:11:29;;;;;;;1.5;1.3;;;;;;;16.26;93.67188;928.6606;;;;
2022/05/24 05:13:58;;;;;;;2.6;1.4;;;;;;;16.14;94.73438;928.6516;;;;
2022/05/24 05:16:25;;;;;;;3.2;1.8;;;;;;;16.22;95.05273;928.6479;;;;
2022/05/24 05:18:53;;;;;;;2.2;2;;;;;;;16.3;93.95898;928.6119;;;;
2022/05/24 05:21:18;;;;;;;2.4;1.8;;;;;;;16.39;93.83984;928.5773;;;;
2022/05/24 05:23:43;;;;;;;1.5;1.4;;;;;;;16.53;93.75293;928.6184;;;;
2022/05/24 05:26:14;;;;;;;2.6;1.5;;;;;;;16.71;93.80371;928.6824;;;;
2022/05/24 05:28:37;;;;;;;3.4;1.7;;;;;;;16.81;93.47656;928.6569;;;;
2022/05/24 05:31:22;;;;;;;2.4;1.8;;;;;;;16.82;92.91309;928.6399;;;;
2022/05/24 05:33:33;;;;;;;3.2;1.3;;;;;;;16.79;93.11621;928.7281;;;;
2022/05/24 05:35:57;;;;;;;3.9;1.7;;;;;;;16.71;92.36719;928.7321;;;;
2022/05/24 05:38:27;;;;;;;3;1.7;;;;;;;16.61;92.95801;928.7748;;;;
2022/05/24 05:40:52;;;;;;;1.9;1.5;;;;;;;16.65;92.95801;928.8162;;;;
2022/05/24 05:43:17;;;;;;;1.4;1.3;;;;;;;16.7;92.48145;928.8401;;;;
2022/05/24 05:45:42;;;;;;;2.7;1.3;;;;;;;16.46;92.24609;928.8006;;;;
2022/05/24 05:48:12;;;;;;;5.6;2.7;;;;;;;16.82;92.87891;928.9406;;;;
2022/05/24 05:50:38;;;;;;;4.2;2;;;;;;;16.99;92.66797;928.8464;;;;
2022/05/24 05:53:13;;;;;;;2.2;1.6;;;;;;;17.14;91.2627;928.8678;;;;
2022/05/24 05:55:43;;;;;;;1.6;1.4;;;;;;;17.24;89.50977;928.9044;;;;
2022/05/24 05:58:08;;;;;;;1.5;1.4;;;;;;;17.3;89.4541;928.9579;;;;
2022/05/24 06:00:38;;;;;;;3.5;1.7;;;;;;;17.15;89.74805;929.0137;;;;
2022/05/24 06:03:07;;;;;;;3.2;1.9;;;;;;;17.26;90.48926;928.9714;;;;
2022/05/24 06:05:32;;;;;;;2.2;2;;;;;;;17.21;90.46582;929.0545;;;;
2022/05/24 06:07:57;;;;;;;1.8;1.4;;;;;;;17.12;90.15918;929.0919;;;;
2022/05/24 06:10:34;;;;;;;2.2;1.4;;;;;;;16.86;90.47461;929.1944;;;;
2022/05/24 06:13:03;;;;;;;1.4;1.3;;;;;;;16.88;90.89551;929.2365;;;;
2022/05/24 06:15:28;;;;;;;1.3;1.2;;;;;;;16.77;90.60645;929.2217;;;;
2022/05/24 06:17:59;;;;;;;1.3;1.2;;;;;;;16.78;91.02539;929.2609;;;;
2022/05/24 06:20:29;;;;;;;1.9;1.3;;;;;;;16.84;91.74707;929.2568;;;;
2022/05/24 06:22:57;;;;;;;1.5;1.4;;;;;;;16.87;92.4707;929.2592;;;;
2022/05/24 06:25:23;;;;;;;2.8;1.7;;;;;;;16.89;92.47461;929.3141;;;;
2022/05/24 06:27:51;;;;;;;2.2;1.4;;;;;;;16.96;92.4668;929.3353;;;;
2022/05/24 06:30:16;;;;;;;1.7;1.4;;;;;;;17.02;92.40918;929.3275;;;;
2022/05/24 06:32:44;;;;;;;1.9;1.3;;;;;;;16.98;92.94531;929.3171;;;;
2022/05/24 06:35:09;;;;;;;2.3;1.3;;;;;;;17.01;92.61523;929.3588;;;;
2022/05/24 06:37:36;;;;;;;2;1.8;;;;;;;16.91;93.71875;929.2837;;;;
2022/05/24 06:40:01;;;;;;;3.5;1.5;;;;;;;17.02;93.33789;929.2542;;;;
2022/05/24 06:42:32;;;;;;;4.3;1.9;;;;;;;17.04;92.85449;929.2224;;;;
2022/05/24 06:45:02;;;;;;;3.1;1.8;;;;;;;17.16;92.43945;929.2338;;;;
2022/05/24 06:47:33;;;;;;;3.1;2;;;;;;;17.25;90.69531;929.2597;;;;
2022/05/24 06:49:58;;;;;;;4;2;;;;;;;17.43;90.88379;929.3582;;;;
2022/05/24 06:52:28;;;;;;;2.5;1.6;;;;;;;17.33;91.10645;929.3777;;;;
2022/05/24 06:54:54;;;;;;;3.1;1.9;;;;;;;17.5;90.44629;929.3608;;;;
2022/05/24 06:57:20;;;;;;;3;1.9;;;;;;;17.64;88.9541;929.3428;;;;
2022/05/24 07:02:29;;;;;;;5.6;1.8;;;;;;;17.9;88.36621;929.3706;;;;
2022/05/24 07:04:38;;;;;;;2.6;1.9;;;;;;;18.14;85.7666;929.4531;;;;
2022/05/24 07:07:01;;;;;;;2;1.6;;;;;;;18.55;84.84863;929.4409;;;;
2022/05/24 07:09:29;;;;;;;3.1;1.9;;;;;;;18.35;85.40137;929.4517;;;;
2022/05/24 07:11:51;;;;;;;3.2;2.1;;;;;;;18.55;83.47461;929.5644;;;;
2022/05/24 07:14:17;;;;;;;4.2;2.3;;;;;;;18.58;83.64258;929.5861;;;;
2022/05/24 07:16:42;;;;;;;3.7;2;;;;;;;18.66;83.78613;929.5901;;;;
2022/05/24 07:19:10;;;;;;;3.9;1.9;;;;;;;18.53;84.35547;929.6234;;;;
2022/05/24 07:21:35;;;;;;;2.6;1.6;;;;;;;18.75;81.18555;929.6669;;;;
2022/05/24 07:24:02;;;;;;;1.1;1;;;;;;;19.22;78.80273;929.7036;;;;
2022/05/24 07:26:27;;;;;;;1.5;1.3;;;;;;;19.42;79.84082;929.7172;;;;
2022/05/24 07:28:53;;;;;;;3.2;1.6;;;;;;;19.73;78.24219;929.6622;;;;
2022/05/24 07:31:18;;;;;;;1.9;1.3;;;;;;;19.89;78.28125;929.6983;;;;
2022/05/24 07:33:43;;;;;;;3.7;1.5;;;;;;;20.39;76.98047;929.7115;;;;
2022/05/24 07:36:14;;;;;;;1.9;1.2;;;;;;;20.89;72.16895;929.7623;;;;
2022/05/24 07:38:44;;;;;;;2.8;1;;;;;;;21.06;70.35938;929.7092;;;;
2022/05/24 07:46:16;;;;;;;3.4;0.9;;;;;;;20.35;71.33301;929.7455;;;;
2022/05/24 07:48:44;;;;;;;3.3;1.1;;;;;;;20.31;73.24219;929.7739;;;;
2022/05/24 07:51:09;;;;;;;2.5;0.9;;;;;;;20.58;72.1416;929.7914;;;;
2022/05/24 07:53:37;;;;;;;4.1;1.2;;;;;;;20.76;71.65723;929.8187;;;;
2022/05/24 07:56:02;;;;;;;2.1;0.8;;;;;;;20.81;71.50195;929.8868;;;;
2022/05/24 07:58:30;;;;;;;3.4;1;;;;;;;19.87;73.4834;929.8729;;;;
2022/05/24 08:00:54;;;;;;;3.5;1.1;;;;;;;19.39;76.66602;929.925;;;;
2022/05/24 08:03:24;;;;;;;1.7;1.2;;;;;;;18.47;80.93848;929.9791;;;;
2022/05/24 08:05:49;;;;;;;5;1;;;;;;;17.9;84.07031;929.986;;;;
2022/05/24 08:08:17;;;;;;;3.2;1.4;;;;;;;17.22;87.26953;930.0425;;;;
2022/05/24 08:10:41;;;;;;;3.3;1.3;;;;;;;16.73;89.02441;930.0001;;;;
2022/05/24 08:13:07;;;;;;;4.3;1.3;;;;;;;16.7;87.94141;930.0081;;;;
2022/05/24 08:15:32;;;;;;;2.3;1.2;;;;;;;16.64;86.84277;930.02;;;;
2022/05/24 08:18:00;;;;;;;2.5;1.3;;;;;;;16.88;86.50684;929.9681;;;;
2022/05/24 08:20:25;;;;;;;3.2;1.4;;;;;;;16.71;86.93555;930.0682;;;;
2022/05/24 08:22:51;;;;;;;9.6;1.5;;;;;;;16.54;88.24609;930.0528;;;;
2022/05/24 08:25:18;;;;;;;3.7;1.1;;;;;;;16.52;84.95313;930.0052;;;;
2022/05/24 08:27:44;;;;;;;5.5;1.2;;;;;;;16.5;85.35547;929.9631;;;;
2022/05/24 08:30:15;;;;;;;1.3;1;;;;;;;16.68;83.90625;930.0579;;;;
2022/05/24 08:32:43;;;;;;;2.1;0.8;;;;;;;16.61;83.17676;930.0245;;;;
2022/05/24 08:35:09;;;;;;;1.1;0.9;;;;;;;16.77;81.59766;930.126;;;;
2022/05/24 08:37:36;;;;;;;2.6;0.8;;;;;;;16.9;81.07617;930.1556;;;;
2022/05/24 08:40:02;;;;;;;3.6;1.2;;;;;;;16.98;80.96387;930.2209;;;;
2022/05/24 08:42:39;;;;;;;1.7;1;;;;;;;16.92;80.90723;930.1616;;;;
2022/05/24 08:50:04;;;;;;;1.6;0.6;;;;;;;16.7;78.5498;930.2397;;;;
2022/05/24 08:52:29;;;;;;;0.9;0.5;;;;;;;16.72;78.51855;930.33;;;;
2022/05/24 08:54:54;;;;;;;1.4;0.6;;;;;;;16.48;79.93457;930.4587;;;;
2022/05/24 08:57:19;;;;;;;2.2;0.8;;;;;;;16.4;81.16992;930.5706;;;;
2022/05/24 08:59:44;;;;;;;0.7;0.5;;;;;;;16.45;81.64063;930.6869;;;;
2022/05/24 09:02:10;;;;;;;0.7;0.4;;;;;;;16.41;81.80762;930.7358;;;;
2022/05/24 09:04:35;;;;;;;1.3;0.7;;;;;;;16.39;82.75391;930.6848;;;;
2022/05/24 09:07:00;;;;;;;0.4;0.4;;;;;;;15.9;85.1123;930.4922;;;;
2022/05/24 09:09:25;;;;;;;1.3;1;;;;;;;15.68;90.12891;930.5011;;;;
2022/05/24 09:11:54;;;;;;;2.1;1.2;;;;;;;15.6;93.53125;930.6575;;;;
2022/05/24 09:14:20;;;;;;;1.1;0.7;;;;;;;15.82;91.62402;930.6972;;;;
2022/05/24 09:16:51;;;;;;;1.6;0.7;;;;;;;15.86;91.02148;930.7213;;;;
2022/05/24 09:19:45;;;;;;;1.1;0.7;;;;;;;15.93;91.37109;930.7484;;;;
2022/05/24 09:22:06;;;;;;;1.3;0.7;;;;;;;16.06;90.17188;930.817;;;;
2022/05/24 09:24:31;;;;;;;0.7;0.7;;;;;;;16.24;89.09863;930.9023;;;;
2022/05/24 09:26:56;;;;;;;1.6;0.7;;;;;;;16.38;88.91797;930.8588;;;;
2022/05/24 09:29:22;;;;;;;3.1;0.9;;;;;;;16.44;88.28223;930.8881;;;;
2022/05/24 09:31:47;;;;;;;1.8;1.1;;;;;;;16.57;87.06934;930.9227;;;;
2022/05/24 09:34:12;;;;;;;1.3;0.8;;;;;;;16.61;86.07129;930.9633;;;;
2022/05/24 09:36:37;;;;;;;1.1;0.9;;;;;;;16.48;85.35156;930.9368;;;;
2022/05/24 09:39:06;;;;;;;2.6;0.5;;;;;;;16.55;84.71582;930.9899;;;;
2022/05/24 09:41:31;;;;;;;2.6;0.9;;;;;;;16.51;84.97656;931.0566;;;;
2022/05/24 09:43:57;;;;;;;0.9;0.7;;;;;;;16.28;85.35938;931.0452;;;;
2022/05/24 09:46:26;;;;;;;1;0.7;;;;;;;16.35;85.55859;931.0417;;;;
2022/05/24 09:48:50;;;;;;;0.8;0.6;;;;;;;16.25;86.77539;931.0234;;;;
2022/05/24 09:51:15;;;;;;;2.8;0.7;;;;;;;16.3;86.25195;931.0158;;;;
2022/05/24 09:53:40;;;;;;;1;0.8;;;;;;;16.25;86.83301;931.0652;;;;
2022/05/24 09:56:05;;;;;;;1.7;1.2;;;;;;;16.05;87.80176;931.1129;;;;
2022/05/24 09:58:37;;;;;;;1.1;0.7;;;;;;;16.2;87.13477;931.1777;;;;
2022/05/24 10:01:03;;;;;;;1.2;0.8;;;;;;;16.25;86.55762;931.1623;;;;
2022/05/24 10:03:28;;;;;;;1.4;1.2;;;;;;;16.15;86.90625;931.2953;;;;
2022/05/24 10:05:57;;;;;;;1.4;0.8;;;;;;;16.05;87.06152;931.4373;;;;
2022/05/24 10:08:25;;;;;;;1;0.8;;;;;;;16;88.53027;931.406;;;;
2022/05/24 10:10:52;;;;;;;1.4;1;;;;;;;16.06;88.11328;931.5222;;;;
2022/05/24 10:13:18;;;;;;;1.9;0.8;;;;;;;16.04;88.36426;931.5628;;;;
2022/05/24 10:15:50;;;;;;;1.5;1;;;;;;;16.01;88.55371;931.5159;;;;
2022/05/24 10:18:15;;;;;;;1.8;1;;;;;;;15.97;88.88184;931.6012;;;;
2022/05/24 10:20:47;;;;;;;1;0.7;;;;;;;15.65;88.33203;931.5345;;;;
2022/05/24 10:23:11;;;;;;;1.6;0.6;;;;;;;15.68;89.43555;931.4786;;;;
2022/05/24 10:25:37;;;;;;;0.8;0.7;;;;;;;15.88;90.41211;931.4844;;;;
2022/05/24 10:28:04;;;;;;;1.8;1;;;;;;;16.09;89.76172;931.4694;;;;
2022/05/24 10:30:31;;;;;;;2.2;1.1;;;;;;;16.08;89.62207;931.4713;;;;
2022/05/24 10:40:15;;;;;;;0.9;0.9;;;;;;;16.54;86.6123;931.4016;;;;
2022/05/24 10:42:44;;;;;;;3.4;1.5;;;;;;;16.64;86.40039;931.34;;;;
2022/05/24 10:45:16;;;;;;;1.1;0.9;;;;;;;16.82;85.92773;931.4283;;;;
2022/05/24 10:47:41;;;;;;;2;1;;;;;;;16.88;85.54492;931.5265;;;;
2022/05/24 10:50:10;;;;;;;0.6;0.6;;;;;;;16.72;83.32422;931.5424;;;;
2022/05/24 10:52:37;;;;;;;1.3;0.8;;;;;;;16.55;85.56055;931.6842;;;;
2022/05/24 10:55:09;;;;;;;2;1;;;;;;;16.1;87.25586;931.8258;;;;
2022/05/24 10:57:37;;;;;;;0.8;0.8;;;;;;;15.95;87.70996;931.8834;;;;
2022/05/24 11:00:03;;;;;;;1.6;1.1;;;;;;;16;88.54199;931.7401;;;;
2022/05/24 11:02:27;;;;;;;2.7;1;;;;;;;16.12;89.2002;931.7957;;;;
2022/05/24 11:04:52;;;;;;;1;0.9;;;;;;;16.14;89.64551;931.7277;;;;
2022/05/24 11:07:22;;;;;;;2.1;0.9;;;;;;;16.29;88.7373;931.5536;;;;
2022/05/24 11:09:50;;;;;;;1;0.9;;;;;;;16.31;87.92188;931.6445;;;;
2022/05/24 11:12:15;;;;;;;1;0.9;;;;;;;16.55;87.80664;931.6722;;;;
2022/05/24 11:14:40;;;;;;;1.1;0.9;;;;;;;16.69;86.81641;931.6494;;;;
2022/05/24 11:17:05;;;;;;;1.4;0.8;;;;;;;16.8;85.29785;931.6995;;;;
2022/05/24 11:19:31;;;;;;;1.5;0.9;;;;;;;16.96;87.03223;931.6884;;;;
2022/05/24 11:21:55;;;;;;;1.7;0.9;;;;;;;17.06;86.13477;931.6429;;;;
2022/05/24 11:24:21;;;;;;;1.1;0.6;;;;;;;17.25;85.0957;931.597;;;;
2022/05/24 11:26:46;;;;;;;0.8;0.7;;;;;;;17.35;84.18652;931.6345;;;;
2022/05/24 11:29:15;;;;;;;0.8;0.6;;;;;;;17.38;83.51953;931.6838;;;;
2022/05/24 11:31:40;;;;;;;0.6;0.6;;;;;;;17.06;83.3418;931.7065;;;;
2022/05/24 11:34:05;;;;;;;0.6;0.6;;;;;;;16.9;85.07324;931.7215;;;;
2022/05/24 11:36:30;;;;;;;1.5;0.8;;;;;;;;;;;;;
2022/05/24 11:38:55;;;;;;;0.7;0.7;;;;;;;;;;;;;
2022/05/24 11:41:21;;;;;;;0.7;0.6;;;;;;;;;;;;;
2022/05/24 11:43:47;;;;;;;0.7;0.7;;;;;;;;;;;;;
2022/05/24 11:46:12;;;;;;;0.7;0.7;;;;;;;;;;;;;
2022/05/24 11:48:40;;;;;;;1.3;0.8;;;;;;;;;;;;;
2022/05/24 11:51:04;;;;;;;1;0.8;;;;;;;;;;;;;
2022/05/24 11:53:29;;;;;;;2.1;1;;;;;;;;;;;;;
2022/05/24 11:55:55;;;;;;;1.3;1;;;;;;;;;;;;;
2022/05/24 11:58:20;;;;;;;0.8;0.8;;;;;;;;;;;;;
2022/05/24 12:00:45;;;;;;;1.2;0.7;;;;;;;;;;;;;
2022/05/24 12:08:03;;;;;;;2.7;0.9;;;;;;;;;;;;;
2022/05/24 12:10:25;;;;;;;1.7;0.9;;;;;;;;;;;;;
2022/05/24 12:12:51;;;;;;;1.7;1.1;;;;;;;;;;;;;
2022/05/24 12:15:17;;;;;;;0.7;0.7;;;;;;;;;;;;;
2022/05/24 12:18:11;;;;;;;2.7;0.8;;;;;;;;;;;;;
2022/05/24 12:20:36;;;;;;;1;0.7;;;;;;;;;;;;;
2022/05/24 12:23:02;;;;;;;2.2;0.7;;;;;;;;;;;;;
2022/05/24 12:25:27;;;;;;;3.6;2.4;;;;;;;;;;;;;
2022/05/24 12:27:52;;;;;;;2;1.6;;;;;;;;;;;;;
2022/05/24 12:30:17;;;;;;;1;0.9;;;;;;;;;;;;;
2022/05/24 12:32:44;;;;;;;2.5;0.8;;;;;;;;;;;;;
2022/05/24 12:35:09;;;;;;;0.8;0.7;;;;;;;;;;;;;
2022/05/24 12:37:35;;;;;;;1.5;0.9;;;;;;;;;;;;;
2022/05/24 12:39:59;;;;;;;1.6;0.8;;;;;;;;;;;;;
2022/05/24 12:42:25;;;;;;;1;0.9;;;;;;;;;;;;;
2022/05/24 12:44:50;;;;;;;0.6;0.6;;;;;;;;;;;;;
2022/05/24 12:47:15;;;;;;;0.7;0.7;;;;;;;;;;;;;
2022/05/24 12:49:40;;;;;;;1.1;0.8;;;;;;;;;;;;;
2022/05/24 12:52:07;;;;;;;1.6;0.8;;;;;;;;;;;;;
2022/05/24 12:54:32;;;;;;;1;0.7;;;;;;;;;;;;;
2022/05/24 12:56:58;;;;;;;1.2;0.7;;;;;;;;;;;;;
2022/05/24 12:59:23;;;;;;;2.1;0.9;;;;;;;;;;;;;
2022/05/24 13:01:49;;;;;;;1.1;0.8;;;;;;;;;;;;;
2022/05/24 13:04:13;;;;;;;1.4;1;;;;;;;;;;;;;
2022/05/24 13:06:38;;;;;;;1;0.9;;;;;;;;;;;;;
2022/05/24 13:09:04;;;;;;;1.8;1.1;;;;;;;;;;;;;
2022/05/24 13:11:29;;;;;;;0.9;0.9;;;;;;;;;;;;;
2022/05/24 13:13:57;;;;;;;1;0.8;;;;;;;;;;;;;
2022/05/24 13:16:22;;;;;;;0.9;0.9;;;;;;;;;;;;;
2022/05/24 13:18:48;;;;;;;0.6;0.6;;;;;;;;;;;;;
2022/05/24 13:21:13;;;;;;;1.9;0.7;;;;;;;;;;;;;
2022/05/24 13:23:39;;;;;;;1.3;0.9;;;;;;;;;;;;;
2022/05/24 13:26:04;;;;;;;2.6;0.7;;;;;;;;;;;;;
2022/05/24 13:28:28;;;;;;;1.5;0.9;;;;;;;;;;;;;
2022/05/24 13:35:10;;;;;;;2.8;0.9;;;;;;;;;;;;;
2022/05/24 13:35:44;;;;;;;19.9;1.6;;;;;;;;;;;;;
2022/05/24 13:38:09;;;;;;;1.2;1.1;;;;;;;;;;;;;
2022/05/24 13:40:34;;;;;;;1.3;0.9;;;;;;;;;;;;;
2022/05/24 13:43:16;;;;;;;1.8;0.8;;;;;;;;;;;;;
2022/05/24 13:45:25;;;;;;;1.4;0.7;;;;;;;;;;;;;
2022/05/24 13:47:50;;;;;;;1;0.7;;;;;;;;;;;;;
2022/05/24 13:50:17;;;;;;;1.2;0.8;;;;;;;;;;;;;
2022/05/24 13:52:42;;;;;;;1.2;0.6;;;;;;;;;;;;;
2022/05/24 13:55:10;;;;;;;1.1;0.7;;;;;;;;;;;;;
2022/05/24 13:57:36;;;;;;;2;0.9;;;;;;;;;;;;;
2022/05/24 14:00:01;;;;;;;1.8;1.2;;;;;;;;;;;;;
2022/05/24 14:02:27;;;;;;;1.8;0.9;;;;;;;;;;;;;
2022/05/24 14:04:52;;;;;;;0.6;0.5;;;;;;;;;;;;;
2022/05/24 14:07:18;;;;;;;0.4;0.4;;;;;;;;;;;;;
2022/05/24 14:09:43;;;;;;;0.5;0.3;;;;;;;;;;;;;
2022/05/24 14:12:08;;;;;;;1.5;0.6;;;;;;;;;;;;;
2022/05/24 14:14:36;;;;;;;0.4;0.4;;;;;;;;;;;;;
2022/05/24 14:17:00;;;;;;;1.9;0.5;;;;;;;;;;;;;
2022/05/24 14:19:26;;;;;;;0.6;0.5;;;;;;;;;;;;;
2022/05/24 14:21:54;;;;;;;0.5;0.5;;;;;;;;;;;;;
2022/05/24 14:24:16;;;;;;;0.6;0.5;;;;;;;;;;;;;
2022/05/24 14:26:42;;;;;;;1.2;0.6;;;;;;;;;;;;;
2022/05/24 14:29:07;;;;;;;1.3;0.8;;;;;;;;;;;;;
2022/05/24 14:31:34;;;;;;;0.6;0.5;;;;;;;;;;;;;
2022/05/24 14:33:59;;;;;;;0.7;0.5;;;;;;;;;;;;;
2022/05/24 14:36:24;;;;;;;0.7;0.6;;;;;;;;;;;;;
2022/05/24 14:38:49;;;;;;;0.7;0.6;;;;;;;;;;;;;
2022/05/24 14:41:21;;;;;;;0.8;0.7;;;;;;;;;;;;;
2022/05/24 14:43:40;;;;;;;0.8;0.8;;;;;;;;;;;;;
2022/05/24 14:46:08;;;;;;;0.6;0.6;;;;;;;;;;;;;
2022/05/24 14:48:33;;;;;;;1.3;0.7;;;;;;;;;;;;;
2022/05/24 14:50:59;;;;;;;0.7;0.6;;;;;;;;;;;;;
2022/05/24 14:53:24;;;;;;;1.5;0.6;;;;;;;;;;;;;
2022/05/24 14:55:49;;;;;;;0.6;0.5;;;;;;;;;;;;;
2022/05/24 14:58:14;;;;;;;0.6;0.5;;;;;;;;;;;;;
2022/05/24 15:00:41;;;;;;;0.7;0.4;;;;;;;;;;;;;
2022/05/24 15:03:06;;;;;;;0.7;0.5;;;;;;;;;;;;;
2022/05/24 15:05:33;;;;;;;0.9;0.5;;;;;;;;;;;;;
2022/05/24 15:15:23;;;;;;;0.7;0.7;;;;;;;;;;;;;
2022/05/24 15:17:39;;;;;;;0.4;0.4;;;;;;;;;;;;;
2022/05/24 15:20:05;;;;;;;1.5;0.5;;;;;;;;;;;;;
2022/05/24 15:22:31;;;;;;;0.5;0.5;;;;;;;;;;;;;
2022/05/24 15:24:56;;;;;;;0.6;0.6;;;;;;;;;;;;;
2022/05/24 15:27:22;;;;;;;1.3;0.6;;;;;;;;;;;;;
2022/05/24 15:29:47;;;;;;;1.2;0.6;;;;;;;;;;;;;
2022/05/24 15:32:12;;;;;;;1.6;0.7;;;;;;;;;;;;;
2022/05/24 15:34:38;;;;;;;0.7;0.7;;;;;;;;;;;;;
2022/05/24 15:37:04;;;;;;;1.3;0.6;;;;;;;;;;;;;
2022/05/24 15:39:29;;;;;;;1;0.6;;;;;;;;;;;;;
2022/05/24 15:41:55;;;;;;;1.3;0.9;;;;;;;;;;;;;
2022/05/24 15:44:21;;;;;;;2;0.8;;;;;;;;;;;;;
2022/05/24 15:46:47;;;;;;;0.6;0.6;;;;;;;;;;;;;
2022/05/24 15:49:12;;;;;;;0.6;0.6;;;;;;;;;;;;;
2022/05/24 15:51:38;;;;;;;1.3;0.7;;;;;;;;;;;;;
2022/05/24 15:54:03;;;;;;;0.5;0.5;;;;;;;;;;;;;
2022/05/24 15:56:28;;;;;;;1.3;0.5;;;;;;;;;;;;;
2022/05/24 15:58:54;;;;;;;0.7;0.7;;;;;;;;;;;;;
2022/05/24 16:01:20;;;;;;;1.2;0.8;;;;;;;;;;;;;
2022/05/24 16:03:45;;;;;;;1;0.7;;;;;;;;;;;;;
2022/05/24 16:11:01;;;;;;;0.7;0.7;;;;;;;;;;;;;
2022/05/24 16:13:26;;;;;;;1.3;0.7;;;;;;;;;;;;;
2022/05/24 16:15:53;;;;;;;0.9;0.8;;;;;;;;;;;;;
2022/05/24 16:18:17;;;;;;;1.3;1;;;;;;;;;;;;;
2022/05/24 16:20:42;;;;;;;1.1;0.7;;;;;;;;;;;;;
2022/05/24 16:23:07;;;;;;;0.7;0.6;;;;;;;;;;;;;
2022/05/24 16:25:33;;;;;;;0.8;0.8;;;;;;;;;;;;;
2022/05/24 16:27:58;;;;;;;1;0.7;;;;;;;;;;;;;
2022/05/24 16:30:25;;;;;;;0.6;0.6;;;;;;;;;;;;;
2022/05/24 16:32:50;;;;;;;1.2;0.8;;;;;;;;;;;;;
2022/05/24 16:35:18;;;;;;;1.1;0.7;;;;;;;;;;;;;
2022/05/24 16:37:43;;;;;;;1.2;0.8;;;;;;;;;;;;;
2022/05/24 16:40:11;;;;;;;1.1;0.7;;;;;;;;;;;;;
2022/05/24 16:42:35;;;;;;;1.5;0.7;;;;;;;;;;;;;
2022/05/24 16:45:01;;;;;;;0.8;0.8;;;;;;;;;;;;;
2022/05/24 16:47:26;;;;;;;0.7;0.7;;;;;;;;;;;;;
2022/05/24 16:49:51;;;;;;;1.2;0.7;;;;;;;;;;;;;
2022/05/24 16:52:16;;;;;;;1.5;0.8;;;;;;;;;;;;;
2022/05/24 16:59:33;;;;;;;2.6;2.4;;;;;;;;;;;;;